createdAt,value
2023-01-18T00:00:48.393Z,987.94
2023-01-18T00:01:47.927Z,987.95
2023-01-18T00:02:47.882Z,987.93
2023-01-18T00:03:48.612Z,987.99
2023-01-18T00:04:48.471Z,987.94
2023-01-18T00:05:48.622Z,987.99
2023-01-18T00:06:47.930Z,987.98
2023-01-18T00:07:49.575Z,988.04
2023-01-18T00:08:47.519Z,988.02
2023-01-18T00:09:49.372Z,988.01
2023-01-18T00:10:47.745Z,988.03
2023-01-18T00:11:47.967Z,988.06
2023-01-18T00:12:47.728Z,988.08
2023-01-18T00:13:47.530Z,988.06
2023-01-18T00:14:47.865Z,988.06
2023-01-18T00:15:47.580Z,988.08
2023-01-18T00:16:48.916Z,988.08
2023-01-18T00:17:47.390Z,988.08
2023-01-18T00:18:47.375Z,988.11
2023-01-18T00:19:48.823Z,988.12
2023-01-18T00:20:47.813Z,988.09
2023-01-18T00:21:47.723Z,988.08
2023-01-18T00:22:48.170Z,988.12
2023-01-18T00:23:48.340Z,988.19
2023-01-18T00:24:48.359Z,988.13
2023-01-18T00:25:47.223Z,988.17
2023-01-18T00:26:47.335Z,988.19
2023-01-18T00:27:47.671Z,988.23
2023-01-18T00:28:48.467Z,988.24
2023-01-18T00:29:49.086Z,988.25
2023-01-18T00:30:47.581Z,988.27
2023-01-18T00:31:47.713Z,988.27
2023-01-18T00:32:47.494Z,988.28
2023-01-18T00:33:47.179Z,988.29
2023-01-18T00:34:49.207Z,988.27
2023-01-18T00:35:48.254Z,988.28
2023-01-18T00:36:48.943Z,988.29
2023-01-18T00:37:48.149Z,988.28
2023-01-18T00:38:47.333Z,988.31
2023-01-18T00:39:48.751Z,988.34
2023-01-18T00:40:47.238Z,988.36
2023-01-18T00:41:47.164Z,988.40
2023-01-18T00:42:47.044Z,988.41
2023-01-18T00:43:48.091Z,988.35
2023-01-18T00:44:47.761Z,988.34
2023-01-18T00:45:48.207Z,988.35
2023-01-18T00:46:48.602Z,988.33
2023-01-18T00:47:47.411Z,988.34
2023-01-18T00:48:47.295Z,988.36
2023-01-18T00:49:47.595Z,988.36
2023-01-18T00:50:47.092Z,988.35
2023-01-18T00:51:47.009Z,988.40
2023-01-18T00:52:47.207Z,988.40
2023-01-18T00:53:47.108Z,988.33
2023-01-18T00:54:47.379Z,988.38
2023-01-18T00:55:47.380Z,988.33
2023-01-18T00:56:47.131Z,988.37
2023-01-18T00:57:47.143Z,988.35
2023-01-18T00:58:46.965Z,988.37
2023-01-18T00:59:47.355Z,988.39
2023-01-18T01:00:47.692Z,988.39
2023-01-18T01:01:47.970Z,988.41
2023-01-18T01:02:47.179Z,988.40
2023-01-18T01:03:47.044Z,988.41
2023-01-18T01:04:47.281Z,988.44
2023-01-18T01:05:47.084Z,988.41
2023-01-18T01:06:47.244Z,988.37
2023-01-18T01:07:47.820Z,988.39
2023-01-18T01:08:47.232Z,988.39
2023-01-18T01:09:47.582Z,988.37
2023-01-18T01:10:47.014Z,988.35
2023-01-18T01:11:47.266Z,988.44
2023-01-18T01:12:47.079Z,988.42
2023-01-18T01:13:46.954Z,988.47
2023-01-18T01:14:47.079Z,988.43
2023-01-18T01:15:46.948Z,988.51
2023-01-18T01:16:46.997Z,988.44
2023-01-18T01:17:47.826Z,988.45
2023-01-18T01:18:47.406Z,988.49
2023-01-18T01:19:46.891Z,988.47
2023-01-18T01:20:47.201Z,988.49
2023-01-18T01:21:46.817Z,988.56
2023-01-18T01:22:46.824Z,988.54
2023-01-18T01:23:47.036Z,988.57
2023-01-18T01:24:46.728Z,988.52
2023-01-18T01:25:47.465Z,988.53
2023-01-18T01:26:46.649Z,988.49
2023-01-18T01:27:46.657Z,988.47
2023-01-18T01:28:46.857Z,988.48
2023-01-18T01:29:46.670Z,988.46
2023-01-18T01:30:46.889Z,988.53
2023-01-18T01:31:47.492Z,988.54
2023-01-18T01:32:46.500Z,988.57
2023-01-18T01:33:46.773Z,988.59
2023-01-18T01:34:46.604Z,988.61
2023-01-18T01:35:47.013Z,988.64
2023-01-18T01:36:47.013Z,988.63
2023-01-18T01:37:46.502Z,988.64
2023-01-18T01:38:46.756Z,988.61
2023-01-18T01:39:46.459Z,988.63
2023-01-18T01:40:46.352Z,988.62
2023-01-18T01:41:46.550Z,988.59
2023-01-18T01:42:46.362Z,988.64
2023-01-18T01:43:46.555Z,988.59
2023-01-18T01:44:46.517Z,988.59
2023-01-18T01:45:46.730Z,988.55
2023-01-18T01:46:46.384Z,988.50
2023-01-18T01:47:46.575Z,988.49
2023-01-18T01:48:46.342Z,988.49
2023-01-18T01:49:46.404Z,988.49
2023-01-18T01:50:46.311Z,988.52
2023-01-18T01:51:46.406Z,988.52
2023-01-18T01:52:46.621Z,988.52
2023-01-18T01:53:46.206Z,988.48
2023-01-18T01:54:46.446Z,988.44
2023-01-18T01:55:46.261Z,988.42
2023-01-18T01:56:46.541Z,988.47
2023-01-18T01:57:46.367Z,988.49
2023-01-18T01:58:46.358Z,988.46
2023-01-18T01:59:46.180Z,988.45
2023-01-18T02:00:46.236Z,988.47
2023-01-18T02:01:46.653Z,988.46
2023-01-18T02:02:46.151Z,988.41
2023-01-18T02:03:46.092Z,988.43
2023-01-18T02:04:46.096Z,988.40
2023-01-18T02:05:46.245Z,988.44
2023-01-18T02:06:46.210Z,988.42
2023-01-18T02:07:46.017Z,988.38
2023-01-18T02:08:46.003Z,988.40
2023-01-18T02:09:46.285Z,988.36
2023-01-18T02:10:45.941Z,988.38
2023-01-18T02:11:46.027Z,988.41
2023-01-18T02:12:45.935Z,988.43
2023-01-18T02:13:46.035Z,988.41
2023-01-18T02:14:45.965Z,988.42
2023-01-18T02:15:45.984Z,988.47
2023-01-18T02:16:46.085Z,988.48
2023-01-18T02:17:45.873Z,988.52
2023-01-18T02:18:46.195Z,988.47
2023-01-18T02:19:46.095Z,988.51
2023-01-18T02:20:45.824Z,988.52
2023-01-18T02:21:45.815Z,988.53
2023-01-18T02:22:46.111Z,988.57
2023-01-18T02:23:45.785Z,988.57
2023-01-18T02:24:45.817Z,988.58
2023-01-18T02:25:45.763Z,988.64
2023-01-18T02:26:45.847Z,988.60
2023-01-18T02:27:45.906Z,988.62
2023-01-18T02:28:45.815Z,988.65
2023-01-18T02:29:45.895Z,988.63
2023-01-18T02:30:45.764Z,988.59
2023-01-18T02:31:45.828Z,988.54
2023-01-18T02:32:45.991Z,988.55
2023-01-18T02:33:46.966Z,988.54
2023-01-18T02:34:45.696Z,988.51
2023-01-18T02:35:45.788Z,988.49
2023-01-18T02:36:45.615Z,988.50
2023-01-18T02:37:45.692Z,988.53
2023-01-18T02:38:45.635Z,988.54
2023-01-18T02:39:45.624Z,988.58
2023-01-18T02:40:45.796Z,988.62
2023-01-18T02:41:45.635Z,988.60
2023-01-18T02:42:45.624Z,988.59
2023-01-18T02:43:45.550Z,988.55
2023-01-18T02:44:45.461Z,988.59
2023-01-18T02:45:45.589Z,988.57
2023-01-18T02:46:45.378Z,988.52
2023-01-18T02:47:45.568Z,988.58
2023-01-18T02:48:45.588Z,988.56
2023-01-18T02:49:45.483Z,988.55
2023-01-18T02:50:45.633Z,988.54
2023-01-18T02:51:45.494Z,988.53
2023-01-18T02:52:45.413Z,988.54
2023-01-18T02:53:45.321Z,988.57
2023-01-18T02:54:45.429Z,988.58
2023-01-18T02:55:45.421Z,988.56
2023-01-18T02:56:45.342Z,988.55
2023-01-18T02:57:45.249Z,988.62
2023-01-18T02:58:46.158Z,988.68
2023-01-18T02:59:45.337Z,988.69
2023-01-18T03:00:45.181Z,988.70
2023-01-18T03:01:45.598Z,988.71
2023-01-18T03:02:45.299Z,988.72
2023-01-18T03:03:45.172Z,988.75
2023-01-18T03:04:45.186Z,988.78
2023-01-18T03:05:45.296Z,988.76
2023-01-18T03:06:45.696Z,988.75
2023-01-18T03:07:45.105Z,988.75
2023-01-18T03:08:45.307Z,988.74
2023-01-18T03:09:45.219Z,988.73
2023-01-18T03:10:45.221Z,988.68
2023-01-18T03:11:45.319Z,988.66
2023-01-18T03:12:45.047Z,988.61
2023-01-18T03:13:45.185Z,988.61
2023-01-18T03:14:45.274Z,988.63
2023-01-18T03:15:45.401Z,988.61
2023-01-18T03:16:45.052Z,988.62
2023-01-18T03:17:45.107Z,988.66
2023-01-18T03:18:44.989Z,988.63
2023-01-18T03:19:45.122Z,988.63
2023-01-18T03:20:45.000Z,988.61
2023-01-18T03:21:44.890Z,988.67
2023-01-18T03:22:45.124Z,988.68
2023-01-18T03:23:45.013Z,988.69
2023-01-18T03:24:44.951Z,988.71
2023-01-18T03:25:44.934Z,988.81
2023-01-18T03:26:44.993Z,988.82
2023-01-18T03:27:44.943Z,988.85
2023-01-18T03:28:44.857Z,988.83
2023-01-18T03:29:45.041Z,988.88
2023-01-18T03:30:44.981Z,988.86
2023-01-18T03:31:44.971Z,988.99
2023-01-18T03:32:44.783Z,988.95
2023-01-18T03:33:44.876Z,988.93
2023-01-18T03:34:44.891Z,988.97
2023-01-18T03:35:44.802Z,988.93
2023-01-18T03:36:44.911Z,988.89
2023-01-18T03:37:44.818Z,988.88
2023-01-18T03:38:44.812Z,988.88
2023-01-18T03:39:44.706Z,988.81
2023-01-18T03:40:44.842Z,988.79
2023-01-18T03:41:44.638Z,988.78
2023-01-18T03:42:44.809Z,988.77
2023-01-18T03:43:44.850Z,988.73
2023-01-18T03:44:44.740Z,988.79
2023-01-18T03:45:44.716Z,988.83
2023-01-18T03:46:44.681Z,988.90
2023-01-18T03:47:44.659Z,988.87
2023-01-18T03:48:44.577Z,988.93
2023-01-18T03:49:44.962Z,988.96
2023-01-18T03:50:47.328Z,988.98
2023-01-18T03:51:44.500Z,988.96
2023-01-18T03:52:44.710Z,988.96
2023-01-18T03:53:44.599Z,988.91
2023-01-18T03:54:44.505Z,988.96
2023-01-18T03:55:44.540Z,988.94
2023-01-18T03:56:44.521Z,989.02
2023-01-18T03:57:44.741Z,989.01
2023-01-18T03:58:44.644Z,989.02
2023-01-18T03:59:44.462Z,989.00
2023-01-18T04:00:44.553Z,988.99
2023-01-18T04:01:44.480Z,989.02
2023-01-18T04:02:44.600Z,988.97
2023-01-18T04:03:44.505Z,988.94
2023-01-18T04:04:44.381Z,988.92
2023-01-18T04:05:44.475Z,988.92
2023-01-18T04:06:44.321Z,988.90
2023-01-18T04:07:44.311Z,988.93
2023-01-18T04:08:44.332Z,988.91
2023-01-18T04:09:44.440Z,988.92
2023-01-18T04:10:44.330Z,988.96
2023-01-18T04:11:44.899Z,989.02
2023-01-18T04:12:44.323Z,989.03
2023-01-18T04:13:44.327Z,989.08
2023-01-18T04:14:44.251Z,989.10
2023-01-18T04:15:44.303Z,989.07
2023-01-18T04:16:44.279Z,989.04
2023-01-18T04:17:44.272Z,989.09
2023-01-18T04:18:44.276Z,989.09
2023-01-18T04:19:44.178Z,989.15
2023-01-18T04:20:44.395Z,989.18
2023-01-18T04:21:44.195Z,989.13
2023-01-18T04:22:44.218Z,989.14
2023-01-18T04:23:44.515Z,989.11
2023-01-18T04:24:44.223Z,989.14
2023-01-18T04:25:44.619Z,989.18
2023-01-18T04:26:44.217Z,989.16
2023-01-18T04:27:44.260Z,989.15
2023-01-18T04:28:44.466Z,989.12
2023-01-18T04:29:44.164Z,989.11
2023-01-18T04:30:44.054Z,989.17
2023-01-18T04:31:44.065Z,989.20
2023-01-18T04:32:44.172Z,989.21
2023-01-18T04:33:44.076Z,989.23
2023-01-18T04:34:44.593Z,989.22
2023-01-18T04:35:44.017Z,989.17
2023-01-18T04:36:44.122Z,989.14
2023-01-18T04:37:44.835Z,989.09
2023-01-18T04:38:43.917Z,989.10
2023-01-18T04:39:44.028Z,989.10
2023-01-18T04:40:44.007Z,989.09
2023-01-18T04:41:43.807Z,989.05
2023-01-18T04:42:44.043Z,989.14
2023-01-18T04:43:43.933Z,989.15
2023-01-18T04:44:44.204Z,989.14
2023-01-18T04:45:43.862Z,989.13
2023-01-18T04:46:43.880Z,989.15
2023-01-18T04:47:43.776Z,989.21
2023-01-18T04:48:43.785Z,989.24
2023-01-18T04:49:43.891Z,989.17
2023-01-18T04:50:43.798Z,989.14
2023-01-18T04:51:44.006Z,989.12
2023-01-18T04:52:43.727Z,989.15
2023-01-18T04:53:43.704Z,989.16
2023-01-18T04:54:43.741Z,989.28
2023-01-18T04:55:43.832Z,989.32
2023-01-18T04:56:43.964Z,989.34
2023-01-18T04:57:43.769Z,989.36
2023-01-18T04:58:43.742Z,989.39
2023-01-18T04:59:43.735Z,989.39
2023-01-18T05:00:43.811Z,989.37
2023-01-18T05:01:43.770Z,989.35
2023-01-18T05:02:43.749Z,989.42
2023-01-18T05:03:43.594Z,989.42
2023-01-18T05:04:43.900Z,989.46
2023-01-18T05:05:43.582Z,989.46
2023-01-18T05:06:43.597Z,989.46
2023-01-18T05:07:43.701Z,989.55
2023-01-18T05:08:43.794Z,989.56
2023-01-18T05:09:43.828Z,989.52
2023-01-18T05:10:43.616Z,989.51
2023-01-18T05:11:44.556Z,989.48
2023-01-18T05:12:43.442Z,989.47
2023-01-18T05:13:43.450Z,989.49
2023-01-18T05:14:43.970Z,989.53
2023-01-18T05:15:43.582Z,989.54
2023-01-18T05:16:43.533Z,989.52
2023-01-18T05:17:43.848Z,989.52
2023-01-18T05:18:44.375Z,989.55
2023-01-18T05:19:43.586Z,989.59
2023-01-18T05:20:43.581Z,989.65
2023-01-18T05:21:43.725Z,989.66
2023-01-18T05:22:43.399Z,989.72
2023-01-18T05:23:44.230Z,989.68
2023-01-18T05:24:43.528Z,989.75
2023-01-18T05:25:43.416Z,989.71
2023-01-18T05:26:43.346Z,989.75
2023-01-18T05:27:43.327Z,989.75
2023-01-18T05:28:43.376Z,989.76
2023-01-18T05:29:43.343Z,989.79
2023-01-18T05:30:43.271Z,989.80
2023-01-18T05:31:43.353Z,989.78
2023-01-18T05:32:43.161Z,989.76
2023-01-18T05:33:43.299Z,989.77
2023-01-18T05:34:43.393Z,989.81
2023-01-18T05:35:43.278Z,989.82
2023-01-18T05:36:43.292Z,989.75
2023-01-18T05:37:43.230Z,989.82
2023-01-18T05:38:43.203Z,989.84
2023-01-18T05:39:43.241Z,989.87
2023-01-18T05:40:43.205Z,989.90
2023-01-18T05:41:43.219Z,989.92
2023-01-18T05:42:43.186Z,989.94
2023-01-18T05:43:43.052Z,989.89
2023-01-18T05:44:43.161Z,989.98
2023-01-18T05:45:43.066Z,989.99
2023-01-18T05:46:43.070Z,989.98
2023-01-18T05:47:43.087Z,990.01
2023-01-18T05:48:43.269Z,990.02
2023-01-18T05:49:42.986Z,990.07
2023-01-18T05:50:43.088Z,990.04
2023-01-18T05:51:43.088Z,990.10
2023-01-18T05:52:42.994Z,990.08
2023-01-18T05:53:43.014Z,990.13
2023-01-18T05:54:42.921Z,990.08
2023-01-18T05:55:43.035Z,990.08
2023-01-18T05:56:42.836Z,990.12
2023-01-18T05:57:43.738Z,990.10
2023-01-18T05:58:42.834Z,990.10
2023-01-18T05:59:42.961Z,990.14
2023-01-18T06:00:42.851Z,990.13
2023-01-18T06:01:42.821Z,990.18
2023-01-18T06:02:42.769Z,990.21
2023-01-18T06:03:42.769Z,990.28
2023-01-18T06:04:42.980Z,990.19
2023-01-18T06:05:42.813Z,990.29
2023-01-18T06:06:42.900Z,990.30
2023-01-18T06:07:42.717Z,990.35
2023-01-18T06:08:43.204Z,990.38
2023-01-18T06:09:43.064Z,990.36
2023-01-18T06:10:42.745Z,990.38
2023-01-18T06:11:42.713Z,990.33
2023-01-18T06:12:42.740Z,990.35
2023-01-18T06:13:42.742Z,990.35
2023-01-18T06:14:42.643Z,990.38
2023-01-18T06:15:42.657Z,990.35
2023-01-18T06:16:42.900Z,990.35
2023-01-18T06:17:43.081Z,990.31
2023-01-18T06:18:43.075Z,990.35
2023-01-18T06:19:42.492Z,990.36
2023-01-18T06:20:42.599Z,990.33
2023-01-18T06:21:42.500Z,990.30
2023-01-18T06:22:43.550Z,990.35
2023-01-18T06:23:42.928Z,990.36
2023-01-18T06:24:42.507Z,990.38
2023-01-18T06:25:42.614Z,990.41
2023-01-18T06:26:42.447Z,990.40
2023-01-18T06:27:42.510Z,990.47
2023-01-18T06:28:44.381Z,990.43
2023-01-18T06:29:42.434Z,990.44
2023-01-18T06:30:42.438Z,990.47
2023-01-18T06:31:42.412Z,990.53
2023-01-18T06:32:42.468Z,990.50
2023-01-18T06:33:42.463Z,990.52
2023-01-18T06:34:42.468Z,990.54
2023-01-18T06:35:42.284Z,990.53
2023-01-18T06:36:42.395Z,990.53
2023-01-18T06:37:42.400Z,990.57
2023-01-18T06:38:42.517Z,990.54
2023-01-18T06:39:42.304Z,990.53
2023-01-18T06:40:42.408Z,990.59
2023-01-18T06:41:42.328Z,990.59
2023-01-18T06:42:42.360Z,990.55
2023-01-18T06:43:42.369Z,990.53
2023-01-18T06:44:42.358Z,990.57
2023-01-18T06:45:42.481Z,990.59
2023-01-18T06:46:42.155Z,990.52
2023-01-18T06:47:42.342Z,990.58
2023-01-18T06:48:42.469Z,990.62
2023-01-18T06:49:42.487Z,990.63
2023-01-18T06:50:42.292Z,990.69
2023-01-18T06:51:42.220Z,990.74
2023-01-18T06:52:42.516Z,990.70
2023-01-18T06:53:42.324Z,990.70
2023-01-18T06:54:42.129Z,990.76
2023-01-18T06:55:42.124Z,990.76
2023-01-18T06:56:42.125Z,990.75
2023-01-18T06:57:42.255Z,990.78
2023-01-18T06:58:42.647Z,990.75
2023-01-18T06:59:42.033Z,990.78
2023-01-18T07:00:42.154Z,990.72
2023-01-18T07:01:42.137Z,990.79
2023-01-18T07:02:42.085Z,990.84
2023-01-18T07:03:42.918Z,990.82
2023-01-18T07:04:42.075Z,990.76
2023-01-18T07:05:42.121Z,990.77
2023-01-18T07:06:41.919Z,990.77
2023-01-18T07:07:41.996Z,990.79
2023-01-18T07:08:42.001Z,990.85
2023-01-18T07:09:42.001Z,990.89
2023-01-18T07:10:41.905Z,990.92
2023-01-18T07:11:41.853Z,990.93
2023-01-18T07:12:42.137Z,990.94
2023-01-18T07:13:41.922Z,991.01
2023-01-18T07:14:41.925Z,991.01
2023-01-18T07:15:41.865Z,991.04
2023-01-18T07:16:41.951Z,991.02
2023-01-18T07:17:42.190Z,991.14
2023-01-18T07:18:41.778Z,991.10
2023-01-18T07:19:41.814Z,991.10
2023-01-18T07:20:41.798Z,991.14
2023-01-18T07:21:41.699Z,991.14
2023-01-18T07:22:41.721Z,991.17
2023-01-18T07:23:41.697Z,991.21
2023-01-18T07:24:41.835Z,991.19
2023-01-18T07:25:41.746Z,991.16
2023-01-18T07:26:41.712Z,991.18
2023-01-18T07:27:41.648Z,991.21
2023-01-18T07:28:42.660Z,991.23
2023-01-18T07:29:41.759Z,991.18
2023-01-18T07:30:41.611Z,991.21
2023-01-18T07:31:41.879Z,991.18
2023-01-18T07:32:41.964Z,991.16
2023-01-18T07:33:41.625Z,991.18
2023-01-18T07:34:41.565Z,991.09
2023-01-18T07:35:41.579Z,991.16
2023-01-18T07:36:41.617Z,991.17
2023-01-18T07:37:41.684Z,991.18
2023-01-18T07:38:41.412Z,991.19
2023-01-18T07:39:41.511Z,991.20
2023-01-18T07:40:41.620Z,991.18
2023-01-18T07:41:41.519Z,991.27
2023-01-18T07:42:41.658Z,991.25
2023-01-18T07:43:41.642Z,991.26
2023-01-18T07:44:41.685Z,991.25
2023-01-18T07:45:41.458Z,991.33
2023-01-18T07:46:41.370Z,991.35
2023-01-18T07:47:41.736Z,991.39
2023-01-18T07:48:43.735Z,991.39
2023-01-18T07:49:42.326Z,991.36
2023-01-18T07:50:45.284Z,991.43
2023-01-18T07:51:42.318Z,991.42
2023-01-18T07:52:44.093Z,991.42
2023-01-18T07:53:43.656Z,991.46
2023-01-18T07:54:43.435Z,991.46
2023-01-18T07:55:41.312Z,991.47
2023-01-18T07:56:41.641Z,991.46
2023-01-18T07:57:44.701Z,991.50
2023-01-18T07:58:41.462Z,991.48
2023-01-18T07:59:42.310Z,991.52
2023-01-18T08:00:44.316Z,991.54
2023-01-18T08:01:41.689Z,991.55
2023-01-18T08:02:44.359Z,991.50
2023-01-18T08:03:41.482Z,991.53
2023-01-18T08:04:41.158Z,991.59
2023-01-18T08:05:42.012Z,991.62
2023-01-18T08:06:42.238Z,991.58
2023-01-18T08:07:42.059Z,991.66
2023-01-18T08:08:43.665Z,991.65
2023-01-18T08:09:44.529Z,991.68
2023-01-18T08:10:45.195Z,991.70
2023-01-18T08:11:42.255Z,991.71
2023-01-18T08:12:43.592Z,991.74
2023-01-18T08:13:42.155Z,991.72
2023-01-18T08:14:43.383Z,991.73
2023-01-18T08:15:43.426Z,991.69
2023-01-18T08:16:46.538Z,991.70
2023-01-18T08:17:41.373Z,991.73
2023-01-18T08:18:42.202Z,991.74
2023-01-18T08:19:40.983Z,991.78
2023-01-18T08:20:41.276Z,991.79
2023-01-18T08:21:43.968Z,991.86
2023-01-18T08:22:42.656Z,991.86
2023-01-18T08:23:46.960Z,991.90
2023-01-18T08:24:45.837Z,991.89
2023-01-18T08:25:41.598Z,991.88
2023-01-18T08:26:44.247Z,991.88
2023-01-18T08:27:42.870Z,991.91
2023-01-18T08:28:40.932Z,991.98
2023-01-18T08:29:41.971Z,991.96
2023-01-18T08:30:43.208Z,991.95
2023-01-18T08:31:44.665Z,991.96
2023-01-18T08:32:42.616Z,992.00
2023-01-18T08:33:42.791Z,992.08
2023-01-18T08:34:43.690Z,992.05
2023-01-18T08:35:44.476Z,992.08
2023-01-18T08:36:45.407Z,992.10
2023-01-18T08:37:43.872Z,992.04
2023-01-18T08:38:43.753Z,992.07
2023-01-18T08:39:41.844Z,992.13
2023-01-18T08:40:44.040Z,992.08
2023-01-18T08:41:45.763Z,992.07
2023-01-18T08:42:42.685Z,992.05
2023-01-18T08:43:42.882Z,992.08
2023-01-18T08:44:41.823Z,992.04
2023-01-18T08:45:41.683Z,992.06
2023-01-18T08:46:42.341Z,992.07
2023-01-18T08:47:42.506Z,992.07
2023-01-18T08:48:44.550Z,992.03
2023-01-18T08:49:40.709Z,992.05
2023-01-18T08:50:40.604Z,992.14
2023-01-18T08:51:40.602Z,992.13
2023-01-18T08:52:40.827Z,992.14
2023-01-18T08:53:40.531Z,992.18
2023-01-18T08:54:40.503Z,992.24
2023-01-18T08:55:41.418Z,992.23
2023-01-18T08:56:47.291Z,992.28
2023-01-18T08:57:40.578Z,992.29
2023-01-18T08:58:44.608Z,992.32
2023-01-18T08:59:42.788Z,992.32
2023-01-18T09:00:41.004Z,992.30
2023-01-18T09:01:42.617Z,992.29
2023-01-18T09:02:40.967Z,992.27
2023-01-18T09:03:41.273Z,992.29
2023-01-18T09:04:41.499Z,992.27
2023-01-18T09:05:42.744Z,992.30
2023-01-18T09:06:40.600Z,992.32
2023-01-18T09:07:42.980Z,992.36
2023-01-18T09:08:40.312Z,992.36
2023-01-18T09:09:41.827Z,992.39
2023-01-18T09:10:41.877Z,992.41
2023-01-18T09:11:40.403Z,992.42
2023-01-18T09:12:40.971Z,992.46
2023-01-18T09:13:50.887Z,992.44
2023-01-18T09:14:41.489Z,992.41
2023-01-18T09:15:40.276Z,992.49
2023-01-18T09:16:41.099Z,992.48
2023-01-18T09:17:40.514Z,992.49
2023-01-18T09:18:40.441Z,992.49
2023-01-18T09:19:40.178Z,992.49
2023-01-18T09:20:40.383Z,992.54
2023-01-18T09:21:40.397Z,992.56
2023-01-18T09:22:40.204Z,992.58
2023-01-18T09:23:40.840Z,992.59
2023-01-18T09:24:40.320Z,992.61
2023-01-18T09:25:40.014Z,992.60
2023-01-18T09:26:40.681Z,992.64
2023-01-18T09:27:40.628Z,992.59
2023-01-18T09:28:40.055Z,992.62
2023-01-18T09:29:45.899Z,992.61
2023-01-18T09:30:40.353Z,992.62
2023-01-18T09:31:39.969Z,992.56
2023-01-18T09:32:42.294Z,992.63
2023-01-18T09:33:41.204Z,992.64
2023-01-18T09:34:40.085Z,992.60
2023-01-18T09:35:41.297Z,992.65
2023-01-18T09:36:40.401Z,992.72
2023-01-18T09:37:40.643Z,992.76
2023-01-18T09:38:40.126Z,992.73
2023-01-18T09:39:50.969Z,992.75
2023-01-18T09:40:42.698Z,992.82
2023-01-18T09:41:39.933Z,992.85
2023-01-18T09:42:39.860Z,992.85
2023-01-18T09:43:39.943Z,992.84
2023-01-18T09:44:40.236Z,992.90
2023-01-18T09:45:39.843Z,992.86
2023-01-18T09:46:40.319Z,992.85
2023-01-18T09:47:39.892Z,992.85
2023-01-18T09:48:41.824Z,992.88
2023-01-18T09:49:40.290Z,992.86
2023-01-18T09:50:40.682Z,992.85
2023-01-18T09:51:40.314Z,992.84
2023-01-18T09:52:39.697Z,992.89
2023-01-18T09:53:40.098Z,992.87
2023-01-18T09:54:39.913Z,992.87
2023-01-18T09:55:39.929Z,992.90
2023-01-18T09:56:39.649Z,992.90
2023-01-18T09:57:39.936Z,992.88
2023-01-18T09:58:39.617Z,992.89
2023-01-18T09:59:39.784Z,992.92
2023-01-18T10:00:39.606Z,992.92
2023-01-18T10:01:39.896Z,992.90
2023-01-18T10:02:39.670Z,992.88
2023-01-18T10:03:39.665Z,992.91
2023-01-18T10:04:39.481Z,992.88
2023-01-18T10:05:39.476Z,992.87
2023-01-18T10:06:39.674Z,992.91
2023-01-18T10:07:39.518Z,992.84
2023-01-18T10:08:39.490Z,992.89
2023-01-18T10:09:39.489Z,992.85
2023-01-18T10:10:39.526Z,992.83
2023-01-18T10:11:39.610Z,992.84
2023-01-18T10:12:39.423Z,992.84
2023-01-18T10:13:39.447Z,992.83
2023-01-18T10:14:39.671Z,992.82
2023-01-18T10:15:39.369Z,992.85
2023-01-18T10:16:39.416Z,992.89
2023-01-18T10:17:40.406Z,992.90
2023-01-18T10:18:39.762Z,992.88
2023-01-18T10:19:39.490Z,992.88
2023-01-18T10:20:39.488Z,992.88
2023-01-18T10:21:39.378Z,992.88
2023-01-18T10:22:39.610Z,992.89
2023-01-18T10:23:39.374Z,992.89
2023-01-18T10:24:40.341Z,992.92
2023-01-18T10:25:39.445Z,992.94
2023-01-18T10:26:39.747Z,992.95
2023-01-18T10:27:39.435Z,993.01
2023-01-18T10:28:39.325Z,992.98
2023-01-18T10:29:39.563Z,993.02
2023-01-18T10:30:39.647Z,993.02
2023-01-18T10:31:39.324Z,993.02
2023-01-18T10:32:39.387Z,993.03
2023-01-18T10:33:39.246Z,993.01
2023-01-18T10:34:39.162Z,993.03
2023-01-18T10:35:39.099Z,993.08
2023-01-18T10:36:39.301Z,993.06
2023-01-18T10:37:39.197Z,993.07
2023-01-18T10:38:39.089Z,993.08
2023-01-18T10:39:39.312Z,993.12
2023-01-18T10:40:39.320Z,993.09
2023-01-18T10:41:39.123Z,993.08
2023-01-18T10:42:39.009Z,993.09
2023-01-18T10:43:39.277Z,993.11
2023-01-18T10:44:39.032Z,993.10
2023-01-18T10:45:39.111Z,993.11
2023-01-18T10:46:39.349Z,993.10
2023-01-18T10:47:38.942Z,993.14
2023-01-18T10:48:38.983Z,993.18
2023-01-18T10:49:38.882Z,993.19
2023-01-18T10:50:38.995Z,993.23
2023-01-18T10:51:40.428Z,993.22
2023-01-18T10:52:38.977Z,993.20
2023-01-18T10:53:38.943Z,993.16
2023-01-18T10:54:38.899Z,993.22
2023-01-18T10:55:39.221Z,993.14
2023-01-18T10:56:39.823Z,993.21
2023-01-18T10:57:39.029Z,993.16
2023-01-18T10:58:39.055Z,993.19
2023-01-18T10:59:38.837Z,993.16
2023-01-18T11:00:38.789Z,993.13
2023-01-18T11:01:39.168Z,993.13
2023-01-18T11:02:38.790Z,993.11
2023-01-18T11:03:38.674Z,993.12
2023-01-18T11:04:38.713Z,993.09
2023-01-18T11:05:38.781Z,993.09
2023-01-18T11:06:39.157Z,993.12
2023-01-18T11:07:38.727Z,993.08
2023-01-18T11:08:38.577Z,993.09
2023-01-18T11:09:38.920Z,993.11
2023-01-18T11:10:38.984Z,993.16
2023-01-18T11:11:38.790Z,993.15
2023-01-18T11:12:38.927Z,993.16
2023-01-18T11:13:38.658Z,993.11
2023-01-18T11:14:38.536Z,993.14
2023-01-18T11:15:38.855Z,993.13
2023-01-18T11:16:38.981Z,993.16
2023-01-18T11:17:38.982Z,993.17
2023-01-18T11:18:38.553Z,993.18
2023-01-18T11:19:38.481Z,993.15
2023-01-18T11:20:38.647Z,993.19
2023-01-18T11:21:38.616Z,993.18
2023-01-18T11:22:38.686Z,993.19
2023-01-18T11:23:38.491Z,993.19
2023-01-18T11:24:38.396Z,993.15
2023-01-18T11:25:38.511Z,993.21
2023-01-18T11:26:38.529Z,993.15
2023-01-18T11:27:38.437Z,993.18
2023-01-18T11:28:38.320Z,993.18
2023-01-18T11:29:38.440Z,993.16
2023-01-18T11:30:38.545Z,993.12
2023-01-18T11:31:38.530Z,993.13
2023-01-18T11:32:38.375Z,993.10
2023-01-18T11:33:39.994Z,993.08
2023-01-18T11:34:38.273Z,993.11
2023-01-18T11:35:38.473Z,993.09
2023-01-18T11:36:38.288Z,993.06
2023-01-18T11:37:38.502Z,993.04
2023-01-18T11:38:38.185Z,993.03
2023-01-18T11:39:38.599Z,993.03
2023-01-18T11:40:38.280Z,993.02
2023-01-18T11:41:38.412Z,993.03
2023-01-18T11:42:38.227Z,993.03
2023-01-18T11:43:38.321Z,993.06
2023-01-18T11:44:38.139Z,993.03
2023-01-18T11:45:38.436Z,993.06
2023-01-18T11:46:38.353Z,993.01
2023-01-18T11:47:38.465Z,993.04
2023-01-18T11:48:38.176Z,993.01
2023-01-18T11:49:38.363Z,992.98
2023-01-18T11:50:47.815Z,992.99
2023-01-18T11:51:39.519Z,993.02
2023-01-18T11:52:38.723Z,992.99
2023-01-18T11:53:38.550Z,992.98
2023-01-18T11:54:39.646Z,992.98
2023-01-18T11:55:39.659Z,992.95
2023-01-18T11:56:41.275Z,992.98
2023-01-18T11:57:41.022Z,992.99
2023-01-18T11:58:38.866Z,992.96
2023-01-18T11:59:39.278Z,992.99
2023-01-18T12:00:47.217Z,992.95
2023-01-18T12:01:44.293Z,992.97
2023-01-18T12:02:43.992Z,992.97
2023-01-18T12:03:45.066Z,992.98
2023-01-18T12:04:40.206Z,993.05
2023-01-18T12:05:40.776Z,993.00
2023-01-18T12:06:40.751Z,993.02
2023-01-18T12:07:46.327Z,992.99
2023-01-18T12:08:44.341Z,993.06
2023-01-18T12:09:41.064Z,993.01
2023-01-18T12:10:42.117Z,993.03
2023-01-18T12:11:41.210Z,993.08
2023-01-18T12:12:40.088Z,993.07
2023-01-18T12:13:44.600Z,993.13
2023-01-18T12:14:40.070Z,993.17
2023-01-18T12:15:39.773Z,993.19
2023-01-18T12:16:41.535Z,993.21
2023-01-18T12:17:39.909Z,993.19
2023-01-18T12:18:39.208Z,993.23
2023-01-18T12:19:40.430Z,993.22
2023-01-18T12:20:41.144Z,993.26
2023-01-18T12:21:41.158Z,993.27
2023-01-18T12:22:39.621Z,993.23
2023-01-18T12:23:50.307Z,993.23
2023-01-18T12:24:40.280Z,993.18
2023-01-18T12:25:44.277Z,993.25
2023-01-18T12:26:40.994Z,993.21
2023-01-18T12:27:45.624Z,993.21
2023-01-18T12:28:41.197Z,993.19